Time;durP1;ratioP1;P1;durP2;ratioP2;P2;SDS_P1;SDS_P2;PMS_P1;PMS_P2;Temp;Humidity;BMP_temperature;BMP_pressure;BME280_temperature;BME280_humidity;BME280_pressure;Samples;Min_cycle;Max_cycle;Signal;HPM_P1;HPM_P2
2023/12/28 00:00:41;;;;;;;21.92;5.85;;;1.40;99.90;;;;;;4953809;29;20035;-75
2023/12/28 00:03:07;;;;;;;14.52;5.93;;;1.30;99.90;;;;;;4953955;29;20031;-75
2023/12/28 00:05:33;;;;;;;35.97;7.07;;;1.40;99.90;;;;;;4952707;29;20020;-75
2023/12/28 00:07:58;;;;;;;22.08;6.00;;;1.40;99.90;;;;;;4952304;29;20482;-75
2023/12/28 00:10:25;;;;;;;12.32;5.32;;;1.30;99.90;;;;;;4954270;29;20090;-75
2023/12/28 00:12:51;;;;;;;29.08;6.25;;;2.50;99.90;;;;;;4953838;28;20035;-75
2023/12/28 00:15:16;;;;;;;15.05;5.75;;;1.80;99.90;;;;;;4956407;29;20027;-77
2023/12/28 00:17:42;;;;;;;18.13;5.15;;;2.00;99.90;;;;;;4962444;28;20036;-75
2023/12/28 00:20:08;;;;;;;16.90;5.50;;;1.30;99.90;;;;;;4962481;29;20035;-75
2023/12/28 00:22:33;;;;;;;19.70;6.20;;;1.40;99.90;;;;;;4959778;28;20028;-75
2023/12/28 00:24:59;;;;;;;20.48;5.50;;;1.30;99.90;;;;;;4953710;29;20077;-75
2023/12/28 00:27:25;;;;;;;13.48;5.45;;;1.30;99.90;;;;;;4954116;28;20441;-76
2023/12/28 00:29:50;;;;;;;21.50;5.72;;;1.30;99.90;;;;;;4953768;28;20552;-75
2023/12/28 00:32:16;;;;;;;18.02;5.68;;;1.30;99.90;;;;;;4957555;29;20110;-75
2023/12/28 00:34:42;;;;;;;15.23;5.47;;;1.30;99.90;;;;;;4956428;29;20050;-75
2023/12/28 00:37:07;;;;;;;14.40;5.13;;;1.30;99.90;;;;;;4957335;28;20394;-75
2023/12/28 00:39:34;;;;;;;19.77;4.93;;;1.20;99.90;;;;;;4957354;28;20063;-75
2023/12/28 00:42:00;;;;;;;20.48;4.90;;;1.20;99.90;;;;;;4956017;28;20039;-75
2023/12/28 00:44:25;;;;;;;15.75;5.20;;;1.20;99.90;;;;;;4957383;28;20024;-75
2023/12/28 00:46:51;;;;;;;6.22;4.55;;;1.30;99.90;;;;;;4957180;29;20114;-75
2023/12/28 00:49:16;;;;;;;12.30;4.97;;;1.20;99.90;;;;;;4957192;28;20029;-76
2023/12/28 00:51:42;;;;;;;5.80;4.30;;;1.10;99.90;;;;;;4957243;28;20035;-75
2023/12/28 00:54:08;;;;;;;14.82;6.32;;;1.10;99.90;;;;;;4957244;29;20031;-75
2023/12/28 00:56:33;;;;;;;13.50;4.90;;;1.10;99.90;;;;;;4957126;28;20027;-75
2023/12/28 00:59:01;;;;;;;8.30;5.38;;;1.00;99.90;;;;;;4956625;28;20031;-75
2023/12/28 01:01:27;;;;;;;12.18;5.07;;;2.50;99.90;;;;;;4957029;28;20391;-75
2023/12/28 01:03:52;;;;;;;11.23;5.03;;;1.00;99.90;;;;;;4957046;29;20030;-75
2023/12/28 01:06:18;;;;;;;29.45;6.07;;;0.90;99.90;;;;;;4957294;28;20059;-75
2023/12/28 01:08:44;;;;;;;18.92;5.32;;;1.00;99.90;;;;;;4955352;28;20019;-75
2023/12/28 01:11:12;;;;;;;31.95;5.35;;;1.10;99.90;;;;;;4955700;28;20035;-75
2023/12/28 01:13:37;;;;;;;16.15;5.45;;;1.30;99.90;;;;;;4955903;28;20032;-75
2023/12/28 01:16:04;;;;;;;23.23;4.90;;;1.30;99.90;;;;;;4956695;29;20371;-75
2023/12/28 01:18:29;;;;;;;11.48;4.70;;;1.20;99.90;;;;;;4956451;28;20130;-75
2023/12/28 01:20:55;;;;;;;6.03;4.72;;;1.10;99.90;;;;;;4956810;28;20486;-75
2023/12/28 01:23:21;;;;;;;11.55;5.28;;;1.00;99.90;;;;;;4956575;29;20039;-75
2023/12/28 01:25:46;;;;;;;14.93;4.97;;;1.10;99.90;;;;;;4955456;28;20027;-75
2023/12/28 01:28:12;;;;;;;13.23;5.15;;;1.00;99.90;;;;;;4955045;29;20034;-76
2023/12/28 01:30:38;;;;;;;11.25;5.78;;;1.00;99.90;;;;;;4955306;29;20027;-75
2023/12/28 01:33:04;;;;;;;17.98;4.63;;;1.10;99.90;;;;;;4956584;29;20027;-75
2023/12/28 01:35:29;;;;;;;12.50;4.90;;;1.10;99.90;;;;;;4956520;28;20055;-75
2023/12/28 01:37:55;;;;;;;11.52;4.47;;;1.10;99.90;;;;;;4956210;29;20062;-75
2023/12/28 01:40:21;;;;;;;10.80;4.38;;;0.90;99.90;;;;;;4956737;28;20389;-75
2023/12/28 01:42:46;;;;;;;9.25;5.63;;;1.00;99.90;;;;;;4956070;28;20027;-76
2023/12/28 01:45:12;;;;;;;12.88;5.97;;;1.10;99.90;;;;;;4956282;28;20462;-75
2023/12/28 01:47:38;;;;;;;17.02;5.57;;;1.00;99.90;;;;;;4956086;29;20027;-75
2023/12/28 01:50:06;;;;;;;11.80;5.10;;;2.10;99.90;;;;;;4956254;28;20082;-75
2023/12/28 01:52:32;;;;;;;11.90;5.22;;;1.10;99.90;;;;;;4957070;28;20397;-75
2023/12/28 01:54:58;;;;;;;12.68;5.57;;;1.10;99.90;;;;;;4956178;29;20485;-76
2023/12/28 01:57:24;;;;;;;7.38;5.47;;;0.90;99.90;;;;;;4955992;29;20135;-75
2023/12/28 01:59:50;;;;;;;13.23;5.03;;;0.90;99.90;;;;;;4955863;29;20058;-75
2023/12/28 02:02:16;;;;;;;16.88;5.45;;;1.10;99.90;;;;;;4955920;28;20066;-75
2023/12/28 02:04:43;;;;;;;8.68;4.72;;;1.10;99.90;;;;;;4956003;28;20398;-75
2023/12/28 02:07:10;;;;;;;22.55;6.00;;;2.00;99.90;;;;;;4955637;29;20167;-75
2023/12/28 02:09:36;;;;;;;8.48;5.10;;;1.00;99.90;;;;;;4955890;28;20151;-75
2023/12/28 02:12:02;;;;;;;9.70;4.72;;;1.00;99.90;;;;;;4954458;28;20054;-75
2023/12/28 02:14:28;;;;;;;11.65;5.72;;;1.00;99.90;;;;;;4954501;29;20027;-75
2023/12/28 02:17:24;;;;;;;10.50;5.25;;;1.20;99.90;;;;;;4955626;29;20023;-75
2023/12/28 02:20:00;;;;;;;8.13;4.93;;;1.00;99.90;;;;;;4955705;29;20067;-76
2023/12/28 02:22:27;;;;;;;15.00;6.13;;;0.90;99.90;;;;;;4954286;29;20113;-75
2023/12/28 02:25:11;;;;;;;13.68;5.43;;;0.90;99.90;;;;;;4955593;29;20154;-76
2023/12/28 02:27:46;;;;;;;8.10;5.75;;;0.90;99.90;;;;;;4955289;28;20492;-76
2023/12/28 02:30:14;;;;;;;13.00;5.50;;;1.00;99.90;;;;;;4954281;29;20027;-75
2023/12/28 02:33:18;;;;;;;15.25;5.72;;;0.90;99.90;;;;;;4957020;28;20308;-76
2023/12/28 02:35:52;;;;;;;15.85;5.55;;;0.90;99.90;;;;;;4960015;29;20058;-76
2023/12/28 02:38:18;;;;;;;9.88;5.35;;;0.90;99.90;;;;;;4955097;29;20031;-75
2023/12/28 02:40:45;;;;;;;17.98;5.38;;;0.80;99.90;;;;;;4955276;28;20027;-76
2023/12/28 02:43:11;;;;;;;26.55;5.45;;;0.80;99.90;;;;;;4955138;29;20162;-76
2023/12/28 02:45:38;;;;;;;13.25;5.35;;;0.70;99.90;;;;;;4955182;29;20019;-76
2023/12/28 02:48:04;;;;;;;9.10;5.05;;;0.70;99.90;;;;;;4954973;29;20020;-76
2023/12/28 02:50:31;;;;;;;10.80;5.28;;;0.80;99.90;;;;;;4955096;28;20023;-75
2023/12/28 02:52:57;;;;;;;7.90;5.35;;;0.70;99.90;;;;;;4954492;28;20035;-76
2023/12/28 02:55:24;;;;;;;13.00;5.22;;;0.70;99.90;;;;;;4955032;28;20027;-76
2023/12/28 02:57:51;;;;;;;8.77;5.00;;;0.60;99.90;;;;;;4954637;29;20521;-75
2023/12/28 03:00:16;;;;;;;13.63;5.28;;;0.60;99.90;;;;;;4953611;29;20063;-75
2023/12/28 03:02:43;;;;;;;25.08;5.72;;;0.50;99.90;;;;;;4954061;28;20031;-76
2023/12/28 03:05:09;;;;;;;12.65;5.15;;;0.40;99.90;;;;;;4953542;29;20024;-76
2023/12/28 03:07:35;;;;;;;9.52;5.20;;;0.40;99.90;;;;;;4953375;29;20023;-76
2023/12/28 03:10:02;;;;;;;10.65;4.60;;;0.30;99.90;;;;;;4954872;29;20104;-76
2023/12/28 03:12:29;;;;;;;18.67;5.43;;;0.50;99.90;;;;;;4953479;29;20035;-76
2023/12/28 03:14:54;;;;;;;19.55;4.85;;;0.50;99.90;;;;;;4954831;28;20075;-76
2023/12/28 03:17:20;;;;;;;24.92;5.63;;;0.30;99.90;;;;;;4953176;29;20130;-76
2023/12/28 03:19:46;;;;;;;27.77;5.03;;;0.40;99.90;;;;;;4954727;28;20078;-75
2023/12/28 03:22:12;;;;;;;13.10;5.35;;;0.40;99.90;;;;;;4953627;28;20069;-76
2023/12/28 03:24:38;;;;;;;23.92;5.47;;;0.40;99.90;;;;;;4954966;28;20024;-76
2023/12/28 03:27:05;;;;;;;26.35;5.85;;;0.40;99.90;;;;;;4954762;29;20027;-75
2023/12/28 03:29:30;;;;;;;23.60;5.85;;;0.40;99.90;;;;;;4953100;28;20042;-76
2023/12/28 03:31:56;;;;;;;9.50;4.57;;;0.30;99.90;;;;;;4954364;29;20421;-75
2023/12/28 03:34:22;;;;;;;9.32;4.70;;;0.30;99.90;;;;;;4954433;28;20026;-75
2023/12/28 03:36:49;;;;;;;13.30;5.30;;;0.30;99.90;;;;;;4952996;29;20466;-76
2023/12/28 03:39:14;;;;;;;7.90;4.38;;;0.30;99.90;;;;;;4954030;29;20035;-75
2023/12/28 03:41:40;;;;;;;6.50;4.13;;;0.30;99.90;;;;;;4954044;29;20043;-76
2023/12/28 03:44:06;;;;;;;11.98;5.05;;;0.30;99.90;;;;;;4953122;29;20474;-76
2023/12/28 03:46:31;;;;;;;8.98;5.03;;;0.30;99.90;;;;;;4952928;28;20031;-76
2023/12/28 03:48:57;;;;;;;7.57;4.75;;;0.40;99.90;;;;;;4953937;29;20027;-76
2023/12/28 03:51:23;;;;;;;8.02;4.50;;;0.40;99.90;;;;;;4954099;29;20445;-76
2023/12/28 03:53:48;;;;;;;8.52;4.32;;;0.40;99.90;;;;;;4952941;29;20027;-75
2023/12/28 03:56:25;;;;;;;18.15;5.03;;;0.40;99.90;;;;;;4953865;29;20035;-75
2023/12/28 03:58:52;;;;;;;9.75;4.43;;;0.60;99.90;;;;;;4953631;28;20035;-76
2023/12/28 04:01:19;;;;;;;10.25;5.03;;;0.50;99.90;;;;;;4954091;29;20023;-76
2023/12/28 04:03:45;;;;;;;10.52;5.43;;;0.40;99.90;;;;;;4952726;28;20031;-76
2023/12/28 04:06:12;;;;;;;7.38;4.35;;;0.50;99.90;;;;;;4952654;28;20081;-76
2023/12/28 04:08:38;;;;;;;7.43;4.45;;;0.60;99.90;;;;;;4953540;28;20371;-76
2023/12/28 04:11:04;;;;;;;10.93;5.45;;;0.40;99.90;;;;;;4953908;28;20188;-76
2023/12/28 04:13:29;;;;;;;8.27;5.07;;;0.50;99.90;;;;;;4954105;29;20035;-76
2023/12/28 04:15:55;;;;;;;19.77;5.00;;;0.50;99.90;;;;;;4953789;29;20028;-76
2023/12/28 04:18:21;;;;;;;9.80;4.60;;;0.40;99.90;;;;;;4952408;29;20035;-76
2023/12/28 04:20:46;;;;;;;12.02;5.03;;;0.50;99.90;;;;;;4952493;28;20178;-76
2023/12/28 04:23:12;;;;;;;11.05;5.78;;;0.50;99.90;;;;;;4953610;29;20035;-76
2023/12/28 04:25:37;;;;;;;12.55;6.03;;;0.50;99.90;;;;;;4953570;29;20047;-76
2023/12/28 04:28:03;;;;;;;17.30;4.97;;;0.60;99.90;;;;;;4953453;28;20023;-75
2023/12/28 04:30:29;;;;;;;6.07;4.50;;;0.50;99.90;;;;;;4952426;29;20513;-76
2023/12/28 04:32:54;;;;;;;12.63;4.47;;;0.40;99.90;;;;;;4952499;29;20034;-76
2023/12/28 04:35:20;;;;;;;10.18;5.40;;;0.30;99.90;;;;;;4953632;29;20455;-76
2023/12/28 04:37:45;;;;;;;12.55;5.70;;;0.30;99.90;;;;;;4952741;29;20042;-76
2023/12/28 04:40:14;;;;;;;18.88;5.45;;;0.30;99.90;;;;;;4964976;28;20028;-75
2023/12/28 04:42:39;;;;;;;7.03;4.53;;;0.30;99.90;;;;;;4966953;29;20041;-76
2023/12/28 04:45:06;;;;;;;6.68;4.40;;;0.30;99.90;;;;;;4969589;28;20110;-77
2023/12/28 04:47:31;;;;;;;20.83;4.60;;;0.50;99.90;;;;;;4953371;29;20440;-76
2023/12/28 04:49:57;;;;;;;18.25;5.18;;;0.30;99.90;;;;;;4952241;28;20110;-76
2023/12/28 04:52:22;;;;;;;20.27;4.55;;;0.40;99.90;;;;;;4952107;28;20031;-76
2023/12/28 04:54:48;;;;;;;13.18;4.43;;;0.30;99.90;;;;;;4953438;29;20027;-76
2023/12/28 04:57:14;;;;;;;5.78;4.45;;;0.30;99.90;;;;;;4951945;29;20031;-76
2023/12/28 04:59:40;;;;;;;15.27;4.43;;;0.20;99.90;;;;;;4953223;29;20042;-76
2023/12/28 05:02:06;;;;;;;25.10;4.38;;;0.30;99.90;;;;;;4953374;29;20039;-76
2023/12/28 05:04:32;;;;;;;7.07;4.22;;;0.30;99.90;;;;;;4952212;29;20100;-76
2023/12/28 05:06:57;;;;;;;10.43;4.13;;;0.10;99.90;;;;;;4951903;29;20114;-75
2023/12/28 05:09:23;;;;;;;8.30;4.57;;;0.40;99.90;;;;;;4953316;28;20107;-76
2023/12/28 05:11:48;;;;;;;12.20;4.88;;;0.30;99.90;;;;;;4953428;28;20066;-76
2023/12/28 05:14:14;;;;;;;13.93;4.72;;;0.40;99.90;;;;;;4953348;28;20110;-76
2023/12/28 05:16:40;;;;;;;19.92;4.43;;;0.30;99.90;;;;;;4954693;28;20059;-76
2023/12/28 05:19:05;;;;;;;9.85;4.63;;;0.30;99.90;;;;;;4956689;29;20106;-76
2023/12/28 05:21:31;;;;;;;6.93;4.97;;;0.20;99.90;;;;;;4955385;28;20528;-76
2023/12/28 05:23:57;;;;;;;15.20;4.93;;;0.20;99.90;;;;;;4956618;29;20719;-76
2023/12/28 05:26:23;;;;;;;8.55;5.05;;;0.20;99.90;;;;;;4956535;28;20019;-76
2023/12/28 05:28:49;;;;;;;9.13;5.43;;;0.20;99.90;;;;;;4956375;29;20062;-76
2023/12/28 05:31:15;;;;;;;17.35;4.28;;;0.30;99.90;;;;;;4956656;28;20051;-76
2023/12/28 05:33:40;;;;;;;6.35;4.15;;;0.20;99.90;;;;;;4955312;28;20497;-76
2023/12/28 05:36:06;;;;;;;17.92;4.75;;;0.30;99.90;;;;;;4956442;29;20113;-76
2023/12/28 05:38:32;;;;;;;13.27;4.30;;;0.40;99.90;;;;;;4956009;29;20035;-76
2023/12/28 05:40:58;;;;;;;9.20;3.97;;;0.20;99.90;;;;;;4955221;28;20027;-76
2023/12/28 05:43:23;;;;;;;24.30;4.55;;;0.20;99.90;;;;;;4956258;29;20034;-76
2023/12/28 05:45:49;;;;;;;17.88;4.80;;;0.10;99.90;;;;;;4956375;28;20118;-76
2023/12/28 05:48:14;;;;;;;11.45;5.00;;;0.10;99.90;;;;;;4954790;29;20019;-75
2023/12/28 05:50:40;;;;;;;29.00;9.35;;;0.30;99.90;;;;;;4954939;28;20114;-76
2023/12/28 05:53:06;;;;;;;79.68;24.83;;;0.20;99.90;;;;;;4968274;28;20026;-76
2023/12/28 05:55:31;;;;;;;30.17;10.43;;;1.60;99.90;;;;;;4974064;28;20030;-75
2023/12/28 05:57:57;;;;;;;33.20;7.20;;;1.20;99.90;;;;;;4975150;28;20030;-75
2023/12/28 06:00:22;;;;;;;15.82;6.65;;;1.00;99.90;;;;;;4975280;28;20038;-75
2023/12/28 06:02:51;;;;;;;22.70;5.47;;;0.80;99.90;;;;;;4981535;28;20023;-75
2023/12/28 06:05:17;;;;;;;14.45;4.47;;;0.60;99.90;;;;;;4977342;28;20026;-73
2023/12/28 06:07:43;;;;;;;10.00;4.93;;;0.50;99.90;;;;;;4975470;28;20468;-74
2023/12/28 06:10:09;;;;;;;9.70;5.28;;;0.40;99.90;;;;;;4975138;28;20098;-74
2023/12/28 06:12:36;;;;;;;23.80;4.82;;;0.40;99.90;;;;;;4975115;28;20041;-74
2023/12/28 06:15:03;;;;;;;6.38;4.03;;;0.40;99.90;;;;;;4967616;28;20098;-74
2023/12/28 06:17:28;;;;;;;16.52;4.95;;;0.10;99.90;;;;;;4973530;28;20035;-74
2023/12/28 06:19:54;;;;;;;24.10;5.55;;;0.30;99.90;;;;;;4974940;28;20486;-74
2023/12/28 06:22:20;;;;;;;12.07;4.53;;;0.20;99.90;;;;;;4974809;28;20053;-74
2023/12/28 06:24:45;;;;;;;10.32;4.30;;;0.20;99.90;;;;;;4974816;28;20026;-74
2023/12/28 06:27:11;;;;;;;17.52;5.30;;;0.20;99.90;;;;;;4974272;28;20467;-74
2023/12/28 06:29:37;;;;;;;24.55;5.00;;;0.10;99.90;;;;;;4974096;28;20027;-74
2023/12/28 06:32:03;;;;;;;20.23;4.65;;;0.10;99.90;;;;;;4974776;28;20390;-75
2023/12/28 06:34:28;;;;;;;20.98;4.68;;;0.10;99.90;;;;;;4975767;28;20506;-75
2023/12/28 06:36:54;;;;;;;25.48;5.35;;;0.00;99.90;;;;;;4975021;28;20042;-75
2023/12/28 06:39:19;;;;;;;22.27;5.28;;;-0.10;99.90;;;;;;4974478;28;20094;-74
2023/12/28 06:41:48;;;;;;;7.72;4.65;;;-0.10;99.90;;;;;;4974487;28;20054;-74
2023/12/28 06:44:14;;;;;;;24.15;4.82;;;-0.20;99.90;;;;;;4973371;28;20023;-74
2023/12/28 06:46:40;;;;;;;15.25;4.80;;;-0.10;99.90;;;;;;4973232;28;20023;-74
2023/12/28 06:49:06;;;;;;;11.32;4.32;;;-0.20;99.90;;;;;;4972894;28;20402;-74
2023/12/28 06:51:33;;;;;;;34.95;5.55;;;-0.20;99.90;;;;;;4974433;28;20023;-75
2023/12/28 06:53:58;;;;;;;13.85;4.15;;;-0.20;99.90;;;;;;4973088;28;20110;-75
2023/12/28 06:56:24;;;;;;;15.55;5.95;;;-0.30;99.90;;;;;;4974247;28;20102;-74
2023/12/28 06:58:50;;;;;;;19.52;4.78;;;-0.20;99.90;;;;;;4973836;28;20504;-74
2023/12/28 07:01:16;;;;;;;5.40;3.85;;;-0.20;99.90;;;;;;4974314;28;20062;-75
2023/12/28 07:03:42;;;;;;;13.52;5.25;;;-0.30;99.90;;;;;;4974135;28;20057;-74
2023/12/28 07:06:08;;;;;;;13.48;4.57;;;-0.30;99.90;;;;;;4974187;28;20026;-74
2023/12/28 07:08:33;;;;;;;13.13;5.47;;;-0.30;99.90;;;;;;4973610;28;20437;-75
2023/12/28 07:10:59;;;;;;;11.75;4.53;;;-0.30;99.90;;;;;;4972779;28;20027;-74
2023/12/28 07:13:25;;;;;;;7.50;4.88;;;-0.30;99.90;;;;;;4974027;28;20393;-74
2023/12/28 07:15:51;;;;;;;18.75;5.18;;;-0.20;99.90;;;;;;4973969;28;20453;-74
2023/12/28 07:18:17;;;;;;;15.10;5.55;;;-0.20;99.90;;;;;;4972419;28;20033;-75
2023/12/28 07:20:43;;;;;;;14.82;4.30;;;-0.30;99.90;;;;;;4973802;28;20109;-75
2023/12/28 07:23:09;;;;;;;13.55;5.68;;;-0.30;99.90;;;;;;4973601;28;20030;-74
2023/12/28 07:25:34;;;;;;;5.85;3.72;;;-0.30;99.90;;;;;;4973669;28;20477;-75
2023/12/28 07:28:00;;;;;;;14.52;4.97;;;-0.40;99.90;;;;;;4973463;28;20493;-75
2023/12/28 07:30:26;;;;;;;18.08;5.15;;;-0.20;99.90;;;;;;4973671;28;20114;-75
2023/12/28 07:32:51;;;;;;;10.00;4.95;;;-0.20;99.90;;;;;;4972418;28;20030;-75
2023/12/28 07:35:18;;;;;;;8.93;5.00;;;-0.20;99.90;;;;;;4973621;28;20128;-75
2023/12/28 07:37:44;;;;;;;12.95;5.25;;;-0.20;99.90;;;;;;4973319;28;20074;-74
2023/12/28 07:40:12;;;;;;;9.43;4.65;;;-0.20;99.90;;;;;;4973262;28;20027;-75
2023/12/28 07:42:37;;;;;;;9.77;6.00;;;-0.10;99.90;;;;;;4972283;28;20034;-75
2023/12/28 07:45:04;;;;;;;6.60;4.90;;;-0.10;99.90;;;;;;4972245;28;20027;-74
2023/12/28 07:47:29;;;;;;;18.15;5.15;;;-0.10;99.90;;;;;;4967618;28;20085;-74
2023/12/28 07:49:55;;;;;;;8.30;6.28;;;-0.10;99.90;;;;;;4959650;28;20098;-76
2023/12/28 07:52:21;;;;;;;30.45;6.25;;;-0.20;99.90;;;;;;4954131;28;20042;-75
2023/12/28 07:54:47;;;;;;;12.57;5.60;;;-0.20;99.90;;;;;;4954441;28;20027;-74
2023/12/28 07:57:12;;;;;;;21.40;5.43;;;-0.10;99.90;;;;;;4952263;29;20027;-74
2023/12/28 07:59:38;;;;;;;8.27;5.80;;;0.00;99.90;;;;;;4973185;23;20379;-76
2023/12/28 08:02:04;;;;;;;11.60;5.03;;;-0.10;99.90;;;;;;4954365;29;20486;-74
2023/12/28 08:04:29;;;;;;;19.30;5.00;;;0.00;99.90;;;;;;4954458;28;20074;-75
2023/12/28 08:06:55;;;;;;;9.32;4.93;;;0.20;99.90;;;;;;4953048;29;20029;-76
2023/12/28 08:09:20;;;;;;;13.23;5.78;;;-0.10;99.90;;;;;;4953337;29;20031;-75
2023/12/28 08:11:46;;;;;;;12.18;5.35;;;1.20;99.90;;;;;;4954556;29;20023;-75
2023/12/28 08:14:12;;;;;;;14.55;5.55;;;0.40;99.90;;;;;;4953470;29;20039;-77
2023/12/28 08:16:37;;;;;;;9.57;4.38;;;0.20;99.90;;;;;;4956931;29;20031;-75
2023/12/28 08:19:03;;;;;;;6.45;4.50;;;0.20;99.90;;;;;;4963626;29;20024;-75
2023/12/28 08:21:29;;;;;;;7.03;4.82;;;0.10;99.90;;;;;;4963970;29;20051;-75
2023/12/28 08:23:54;;;;;;;7.88;4.93;;;0.00;99.90;;;;;;4961610;29;20035;-78
2023/12/28 08:26:20;;;;;;;8.65;5.60;;;0.20;99.90;;;;;;4948055;29;20028;-75
2023/12/28 08:28:45;;;;;;;6.75;5.28;;;0.30;99.90;;;;;;4946613;29;20075;-75
2023/12/28 08:31:12;;;;;;;6.47;4.05;;;0.40;99.90;;;;;;4946815;29;20390;-76
2023/12/28 08:33:40;;;;;;;6.97;4.78;;;0.50;99.90;;;;;;4946521;29;20032;-75
2023/12/28 08:36:09;;;;;;;6.35;4.55;;;0.40;99.90;;;;;;4946861;29;20039;-76
2023/12/28 08:38:35;;;;;;;8.77;4.35;;;0.50;99.90;;;;;;4946017;29;20032;-76
2023/12/28 08:41:03;;;;;;;7.05;5.05;;;1.00;99.90;;;;;;4947542;29;20087;-76
2023/12/28 08:43:29;;;;;;;5.57;4.43;;;0.40;99.90;;;;;;4948561;29;20026;-76
2023/12/28 08:45:55;;;;;;;7.57;4.82;;;0.30;99.90;;;;;;4948616;29;20092;-77
2023/12/28 08:48:21;;;;;;;6.43;4.68;;;1.40;99.90;;;;;;4949032;29;20024;-76
2023/12/28 08:50:46;;;;;;;9.00;5.53;;;0.30;99.90;;;;;;4948705;29;20027;-75
2023/12/28 08:53:12;;;;;;;13.63;6.60;;;0.40;99.90;;;;;;4945448;29;20035;-75
2023/12/28 08:55:38;;;;;;;10.02;6.78;;;0.50;99.90;;;;;;4939855;29;20032;-75
2023/12/28 08:58:04;;;;;;;24.00;8.98;;;0.90;99.90;;;;;;4947470;29;20637;-75
2023/12/28 09:00:30;;;;;;;18.88;7.75;;;0.70;99.90;;;;;;4947131;29;20039;-77
2023/12/28 09:02:55;;;;;;;15.25;8.25;;;0.80;99.90;;;;;;4946425;29;20036;-76
2023/12/28 09:05:21;;;;;;;20.60;10.30;;;1.00;99.90;;;;;;4947957;29;20043;-75
2023/12/28 09:07:47;;;;;;;22.23;11.55;;;0.70;99.90;;;;;;4950973;29;20059;-76
2023/12/28 09:10:13;;;;;;;29.25;12.68;;;0.90;99.90;;;;;;4952037;29;20053;-76
2023/12/28 09:12:40;;;;;;;24.05;10.35;;;0.60;99.90;;;;;;4950722;29;20032;-76
2023/12/28 09:15:07;;;;;;;19.25;8.43;;;0.80;99.90;;;;;;4950922;29;20028;-77
2023/12/28 09:17:32;;;;;;;15.45;7.90;;;1.10;99.90;;;;;;4949735;29;20019;-77
2023/12/28 09:19:58;;;;;;;13.27;7.90;;;1.00;99.90;;;;;;4937436;29;20445;-76
2023/12/28 09:22:24;;;;;;;20.08;8.20;;;0.90;99.90;;;;;;4936323;29;20032;-76
2023/12/28 09:24:50;;;;;;;15.48;8.18;;;1.00;99.90;;;;;;4936565;29;20497;-76
2023/12/28 09:27:16;;;;;;;15.10;7.15;;;1.40;99.90;;;;;;4936377;29;20039;-76
2023/12/28 09:29:41;;;;;;;19.27;8.13;;;1.60;99.90;;;;;;4937217;29;20059;-77
2023/12/28 09:32:07;;;;;;;27.38;8.63;;;1.30;99.90;;;;;;4937173;29;20036;-78
2023/12/28 09:34:33;;;;;;;21.45;10.35;;;1.20;99.90;;;;;;4935744;29;20039;-76
2023/12/28 09:36:58;;;;;;;17.25;10.82;;;4.70;99.90;;;;;;4935726;29;20034;-76
2023/12/28 09:39:24;;;;;;;22.85;9.57;;;3.20;99.90;;;;;;4936500;29;20028;-77
2023/12/28 09:41:58;;;;;;;20.25;11.43;;;2.70;99.90;;;;;;4936371;29;20036;-76
2023/12/28 09:44:24;;;;;;;17.85;10.05;;;2.40;99.90;;;;;;4937342;29;20023;-77
2023/12/28 09:46:53;;;;;;;15.18;10.48;;;2.40;99.90;;;;;;4937396;29;20024;-76
2023/12/28 09:49:21;;;;;;;11.52;7.30;;;2.30;99.90;;;;;;4936043;29;20086;-76
2023/12/28 09:51:47;;;;;;;9.68;7.22;;;2.00;99.90;;;;;;4937547;29;20486;-76
2023/12/28 09:54:13;;;;;;;9.13;7.18;;;2.00;99.90;;;;;;4937226;29;20032;-76
2023/12/28 09:56:40;;;;;;;9.13;6.40;;;2.00;99.90;;;;;;4937092;29;20520;-76
2023/12/28 09:59:06;;;;;;;7.38;5.57;;;2.10;99.90;;;;;;4937599;29;20054;-75
2023/12/28 10:01:34;;;;;;;9.48;5.85;;;2.40;99.90;;;;;;4938510;29;20043;-75
2023/12/28 10:04:00;;;;;;;9.57;6.85;;;2.20;99.90;;;;;;4935923;29;20372;-75
2023/12/28 10:06:26;;;;;;;10.43;6.93;;;2.20;99.90;;;;;;4936958;29;20119;-74
2023/12/28 10:08:52;;;;;;;15.43;10.13;;;4.30;99.90;;;;;;4935272;29;20024;-76
2023/12/28 10:11:19;;;;;;;16.35;12.35;;;6.50;99.90;;;;;;4935727;29;20024;-76
2023/12/28 10:13:45;;;;;;;18.75;11.75;;;6.80;99.90;;;;;;4935523;29;20035;-76
2023/12/28 10:16:11;;;;;;;12.82;9.75;;;6.60;99.90;;;;;;4938828;29;20058;-76
2023/12/28 10:18:43;;;;;;;11.00;8.27;;;5.80;99.90;;;;;;4939096;29;20087;-76
2023/12/28 10:21:09;;;;;;;15.70;9.52;;;5.20;99.90;;;;;;4934161;29;20031;-76
2023/12/28 10:23:35;;;;;;;13.63;7.65;;;5.00;99.90;;;;;;4937876;29;20075;-78
2023/12/28 10:26:04;;;;;;;13.05;8.07;;;4.70;99.90;;;;;;4938646;29;20224;-79
2023/12/28 10:28:36;;;;;;;13.93;7.57;;;4.40;99.90;;;;;;4935777;29;20054;-76
2023/12/28 10:31:04;;;;;;;13.38;7.88;;;4.40;99.90;;;;;;5059144;23;20073;-79
2023/12/28 10:33:37;;;;;;;10.57;8.05;;;4.40;99.90;;;;;;4955860;29;20044;-76
2023/12/28 10:36:07;;;;;;;13.63;8.80;;;6.00;99.90;;;;;;4956755;29;20019;-76
2023/12/28 10:38:38;;;;;;;11.55;7.90;;;4.40;99.90;;;;;;4955909;29;20047;-78
2023/12/28 10:41:07;;;;;;;14.43;7.90;;;4.40;99.90;;;;;;4965547;28;20132;-79
2023/12/28 10:43:40;;;;;;;12.23;7.93;;;5.20;99.90;;;;;;4971003;28;20118;-76
2023/12/28 10:46:07;;;;;;;13.52;8.40;;;4.30;99.90;;;;;;4970997;28;20123;-79
2023/12/28 10:48:40;;;;;;;11.27;7.47;;;5.10;99.90;;;;;;4956371;29;20027;-79
2023/12/28 10:51:10;;;;;;;10.20;6.65;;;4.90;99.90;;;;;;4972810;28;20453;-78
2023/12/28 10:53:44;;;;;;;10.35;7.43;;;4.70;99.90;;;;;;4954367;29;20042;-80
2023/12/28 10:56:21;;;;;;;13.70;8.23;;;4.90;99.90;;;;;;4972269;28;20485;-78
2023/12/28 10:59:09;;;;;;;13.27;7.20;;;5.00;99.90;;;;;;4940687;29;20039;-80
2023/12/28 11:01:39;;;;;;;13.98;7.88;;;5.10;99.90;;;;;;4959940;28;20050;-76
2023/12/28 11:04:05;;;;;;;12.00;8.00;;;6.00;99.90;;;;;;4956621;28;20489;-75
2023/12/28 11:06:32;;;;;;;15.95;7.47;;;5.80;99.90;;;;;;4955258;28;20047;-75
2023/12/28 11:09:00;;;;;;;9.82;7.07;;;5.50;99.90;;;;;;4954657;28;20031;-74
2023/12/28 11:11:27;;;;;;;8.70;6.40;;;5.90;99.90;;;;;;4954773;28;20020;-74
2023/12/28 11:13:55;;;;;;;10.25;5.50;;;5.50;99.90;;;;;;4953431;28;20039;-75
2023/12/28 11:16:22;;;;;;;8.48;5.72;;;5.60;99.90;;;;;;4954889;28;20034;-75
2023/12/28 11:18:49;;;;;;;9.13;5.65;;;5.80;99.90;;;;;;4953367;29;20446;-75
2023/12/28 11:21:16;;;;;;;10.15;6.35;;;5.90;99.90;;;;;;4969434;28;20028;-75
2023/12/28 11:23:43;;;;;;;12.05;5.90;;;5.90;99.90;;;;;;4954534;28;20390;-76
2023/12/28 11:26:21;;;;;;;11.93;6.20;;;6.00;99.90;;;;;;4954594;28;20023;-76
2023/12/28 11:28:47;;;;;;;14.15;7.22;;;6.20;99.90;;;;;;4954561;28;20028;-76
2023/12/28 11:31:17;;;;;;;11.20;6.22;;;6.20;99.90;;;;;;4954044;28;20140;-76
2023/12/28 11:33:47;;;;;;;12.23;5.90;;;6.50;99.90;;;;;;4954598;28;20035;-76
2023/12/28 11:36:25;;;;;;;10.20;7.20;;;6.50;99.90;;;;;;4955358;28;20027;-76
2023/12/28 11:38:54;;;;;;;10.52;6.47;;;6.60;99.90;;;;;;4956109;29;20082;-75
2023/12/28 11:41:20;;;;;;;10.40;6.88;;;6.70;99.90;;;;;;4959254;28;20478;-76
2023/12/28 11:43:53;;;;;;;8.23;6.50;;;6.80;99.90;;;;;;4973047;28;20056;-75
2023/12/28 11:46:20;;;;;;;9.05;5.80;;;7.10;99.90;;;;;;4958758;28;20117;-75
2023/12/28 11:48:46;;;;;;;9.30;5.45;;;7.10;99.90;;;;;;4961804;29;20019;-76
2023/12/28 11:51:11;;;;;;;8.00;5.88;;;7.20;99.90;;;;;;4979461;28;20031;-76
2023/12/28 11:53:38;;;;;;;9.35;5.93;;;7.10;99.90;;;;;;4979387;28;20027;-75
2023/12/28 11:56:05;;;;;;;11.13;5.57;;;7.30;99.90;;;;;;4979845;28;20031;-76
2023/12/28 11:58:32;;;;;;;10.38;5.72;;;7.20;99.90;;;;;;4956869;28;20019;-74
2023/12/28 12:00:58;;;;;;;9.50;5.60;;;7.30;99.90;;;;;;4954501;28;20031;-75
2023/12/28 12:03:26;;;;;;;9.07;5.68;;;7.30;99.90;;;;;;4954450;28;20598;-76
2023/12/28 12:05:52;;;;;;;5.13;4.63;;;7.50;99.90;;;;;;4968907;28;20019;-75
2023/12/28 12:08:17;;;;;;;6.07;4.53;;;7.50;99.90;;;;;;4953944;28;20390;-77
2023/12/28 12:10:43;;;;;;;7.25;5.28;;;7.60;99.90;;;;;;4968814;28;20023;-76
2023/12/28 12:13:09;;;;;;;10.88;4.47;;;7.60;99.90;;;;;;4968656;28;20167;-76
2023/12/28 12:15:34;;;;;;;9.07;4.07;;;7.70;99.90;;;;;;4968755;28;20077;-76
2023/12/28 12:18:02;;;;;;;6.85;4.18;;;7.70;99.90;;;;;;4953806;28;20034;-76
2023/12/28 12:20:29;;;;;;;6.28;4.05;;;7.80;99.90;;;;;;4968941;28;20031;-77
2023/12/28 12:22:58;;;;;;;6.05;3.70;;;7.70;99.90;;;;;;4953767;28;20031;-76
2023/12/28 12:25:23;;;;;;;7.70;4.55;;;8.00;99.90;;;;;;4968654;28;20094;-75
2023/12/28 12:27:49;;;;;;;24.88;12.15;;;7.80;99.90;;;;;;4957114;28;20490;-75
2023/12/28 12:30:15;;;;;;;33.30;15.90;;;8.10;99.90;;;;;;4957935;29;20031;-76
2023/12/28 12:32:42;;;;;;;18.40;12.23;;;7.80;99.90;;;;;;4956781;29;20042;-76
2023/12/28 12:35:10;;;;;;;15.25;9.52;;;7.80;99.90;;;;;;4956609;29;20114;-77
2023/12/28 12:37:36;;;;;;;10.60;6.40;;;7.70;99.90;;;;;;4957603;28;20549;-76
2023/12/28 12:40:03;;;;;;;9.60;7.03;;;7.70;99.90;;;;;;4972519;28;20130;-75
2023/12/28 12:42:29;;;;;;;10.90;6.70;;;7.60;99.90;;;;;;4957540;28;20037;-76
2023/12/28 12:44:54;;;;;;;12.43;8.15;;;7.70;99.90;;;;;;4956227;29;20110;-76